Jericho, Vermont
Current Conditions -  °F | °C
As of 8:54 AM on Thursday 23 Oct 2014 (Local Time) from KBTV Reporting Station
Overcast Overcast  
Wind Chill: 38°   Ceiling: 3300
Heat Index: 45°   Visibility: 10mi
Dew Point: 37°   Wind: 17mph
Humidity: 74%   Direction: 350°N
Pressure: 29.98"   Gusts: 23mph
Location:  44.5°N, 73°W
Report Text: KBTV 231254Z 35015G20KT 10SM BKN033 BKN075 OVC085 07/03 A2998 RMK AO2 SLP152 ACSL N T00720028
Loading
Personal Weather Stations






























Interactive Weather Map
Tropical Storm Tracking
New forecast layout! Learn more

10-Day Weather Forecast

Advertisements
Track Severe Weather on mobile